Time;durP1;ratioP1;P1;durP2;ratioP2;P2;SDS_P1;SDS_P2;PMS_P1;PMS_P2;Temp;Humidity;BMP_temperature;BMP_pressure;BME280_temperature;BME280_humidity;BME280_pressure;Samples;Min_cycle;Max_cycle;Signal;HPM_P1;HPM_P2
2023/03/02 00:00:32;;;;;;;1999.90;999.90;;;1.30;99.90;;;;;;5069442;28;20439;-66
2023/03/02 00:03:01;;;;;;;1999.90;999.90;;;1.50;99.90;;;;;;5067971;28;20877;-67
2023/03/02 00:05:28;;;;;;;1999.90;999.90;;;1.70;99.90;;;;;;5081083;28;20447;-68
2023/03/02 00:07:56;;;;;;;1999.90;999.90;;;1.90;99.90;;;;;;5087474;28;20518;-67
2023/03/02 00:10:24;;;;;;;1999.90;999.90;;;2.00;99.90;;;;;;5088929;28;20446;-67
2023/03/02 00:12:51;;;;;;;1999.90;999.90;;;2.10;99.90;;;;;;5088322;28;20497;-68
2023/03/02 00:15:18;;;;;;;1999.90;999.90;;;2.10;99.90;;;;;;5088716;28;20463;-66
2023/03/02 00:17:44;;;;;;;1999.90;999.90;;;2.20;99.90;;;;;;5078274;28;20451;-67
2023/03/02 00:20:13;;;;;;;1999.90;999.90;;;2.10;99.90;;;;;;5069289;28;20447;-66
2023/03/02 00:22:42;;;;;;;1999.90;999.90;;;2.00;99.90;;;;;;5068521;28;20490;-65
2023/03/02 00:25:10;;;;;;;1999.90;999.90;;;2.00;99.90;;;;;;5069546;28;20524;-68
2023/03/02 00:27:37;;;;;;;1999.90;999.90;;;1.90;99.90;;;;;;5069429;28;21005;-68
2023/03/02 00:30:04;;;;;;;1999.90;999.90;;;1.70;99.90;;;;;;5069222;28;20534;-65
2023/03/02 00:32:31;;;;;;;1999.90;999.90;;;1.60;99.90;;;;;;5069560;28;20454;-68
2023/03/02 00:34:58;;;;;;;1999.90;999.90;;;1.40;99.90;;;;;;5069659;28;20454;-67
2023/03/02 00:37:26;;;;;;;1999.90;999.90;;;1.40;99.90;;;;;;5070744;28;20435;-66
2023/03/02 00:39:53;;;;;;;1999.90;999.90;;;1.30;99.90;;;;;;5070801;28;20455;-68
2023/03/02 00:42:20;;;;;;;1999.90;999.90;;;1.30;99.90;;;;;;5070681;28;21018;-67
2023/03/02 00:44:47;;;;;;;1999.90;999.90;;;1.20;99.90;;;;;;5070702;28;20519;-66
2023/03/02 00:47:14;;;;;;;1999.90;999.90;;;1.10;99.90;;;;;;5070828;28;20840;-69
2023/03/02 00:49:40;;;;;;;1999.90;999.90;;;1.10;99.90;;;;;;5070096;28;20439;-67
2023/03/02 00:52:07;;;;;;;1999.90;999.90;;;1.10;99.90;;;;;;5070673;28;20462;-67
2023/03/02 00:54:35;;;;;;;1999.90;999.90;;;1.20;99.90;;;;;;5069934;28;20463;-69
2023/03/02 00:57:02;;;;;;;1999.90;999.90;;;1.30;99.90;;;;;;5070529;28;21065;-69
2023/03/02 00:59:29;;;;;;;1999.90;999.90;;;1.40;99.90;;;;;;5070718;28;20853;-66
2023/03/02 01:01:57;;;;;;;1999.90;999.90;;;1.50;99.90;;;;;;5070534;28;20896;-67
2023/03/02 01:04:28;;;;;;;1999.90;999.90;;;1.50;99.90;;;;;;5069488;28;20474;-67
2023/03/02 01:06:55;;;;;;;1999.90;999.90;;;1.50;99.90;;;;;;5070608;28;20447;-68
2023/03/02 01:09:22;;;;;;;1999.90;999.90;;;1.50;99.90;;;;;;5070139;28;20439;-66
2023/03/02 01:11:50;;;;;;;1999.90;999.90;;;1.50;99.90;;;;;;5070465;28;20450;-68
2023/03/02 01:14:17;;;;;;;1999.90;999.90;;;1.50;99.90;;;;;;5068865;28;20474;-67
2023/03/02 01:16:46;;;;;;;1999.90;999.90;;;1.50;99.90;;;;;;5070353;28;20447;-68
2023/03/02 01:19:13;;;;;;;1999.90;999.90;;;1.50;99.90;;;;;;5070263;28;20447;-67
2023/03/02 01:21:40;;;;;;;1999.90;999.90;;;1.50;99.90;;;;;;5070297;28;20443;-66
2023/03/02 01:24:08;;;;;;;1999.90;999.90;;;1.50;99.90;;;;;;5069001;28;20477;-64
2023/03/02 01:26:35;;;;;;;1999.90;999.90;;;1.60;99.90;;;;;;5069975;28;20458;-66
2023/03/02 01:29:03;;;;;;;1999.90;999.90;;;1.60;99.90;;;;;;5070241;28;20843;-65
2023/03/02 01:31:31;;;;;;;1999.90;999.90;;;1.70;99.90;;;;;;5070018;28;20453;-65
2023/03/02 01:33:58;;;;;;;1999.90;999.90;;;1.70;99.90;;;;;;5068983;28;20475;-66
2023/03/02 01:36:24;;;;;;;1999.90;999.90;;;1.60;99.90;;;;;;5070175;28;20501;-66
2023/03/02 01:38:52;;;;;;;1999.90;999.90;;;1.60;99.90;;;;;;5069729;28;20938;-65
2023/03/02 01:41:20;;;;;;;1999.90;999.90;;;1.70;99.90;;;;;;5069989;28;20442;-66
2023/03/02 01:43:47;;;;;;;1999.90;999.90;;;1.60;99.90;;;;;;5068155;28;20562;-65
2023/03/02 01:46:17;;;;;;;1999.90;999.90;;;1.60;99.90;;;;;;5070102;28;20455;-66
2023/03/02 01:48:48;;;;;;;1999.90;999.90;;;1.60;99.90;;;;;;5069726;28;20493;-68
2023/03/02 01:51:18;;;;;;;1999.90;999.90;;;1.60;99.90;;;;;;5070229;28;20462;-67
2023/03/02 01:53:49;;;;;;;1999.90;999.90;;;1.60;99.90;;;;;;5068698;28;20463;-67
2023/03/02 01:56:18;;;;;;;1999.90;999.90;;;1.60;99.90;;;;;;5069567;28;20447;-66
2023/03/02 01:58:48;;;;;;;1999.90;999.90;;;1.60;99.90;;;;;;5070002;28;20467;-68
2023/03/02 02:01:16;;;;;;;1999.90;999.90;;;1.50;99.90;;;;;;5069515;28;20475;-68
2023/03/02 02:03:45;;;;;;;1999.90;999.90;;;1.50;99.90;;;;;;5068437;28;20463;-67
2023/03/02 02:06:19;;;;;;;1999.90;999.90;;;1.50;99.90;;;;;;5069485;28;20466;-68
2023/03/02 02:08:47;;;;;;;1999.90;999.90;;;1.50;99.90;;;;;;5069614;28;20479;-67
2023/03/02 02:11:14;;;;;;;1999.90;999.90;;;1.40;99.90;;;;;;5069601;28;20937;-69
2023/03/02 02:13:40;;;;;;;1999.90;999.90;;;1.20;99.90;;;;;;5068365;28;20866;-66
2023/03/02 02:16:08;;;;;;;1999.90;999.90;;;1.10;99.90;;;;;;5069720;28;20447;-65
2023/03/02 02:18:39;;;;;;;1999.90;999.90;;;1.00;99.90;;;;;;5069311;28;20937;-65
2023/03/02 02:21:07;;;;;;;1999.90;999.90;;;0.90;99.90;;;;;;5069551;28;20814;-66
2023/03/02 02:23:39;;;;;;;1999.90;999.90;;;0.80;99.90;;;;;;5068238;28;20478;-67
2023/03/02 02:26:21;;;;;;;1999.90;999.90;;;0.70;99.90;;;;;;5069604;28;20554;-68
2023/03/02 02:28:57;;;;;;;1999.90;999.90;;;0.50;99.90;;;;;;5069398;28;20483;-67
2023/03/02 02:31:30;;;;;;;1999.90;999.90;;;0.40;99.90;;;;;;5069539;28;20446;-68
2023/03/02 02:34:00;;;;;;;1999.90;999.90;;;0.30;99.90;;;;;;5068710;28;20463;-66
2023/03/02 02:36:32;;;;;;;1999.90;999.90;;;0.20;99.90;;;;;;5069996;28;20450;-66
2023/03/02 02:39:04;;;;;;;1999.90;999.90;;;0.10;99.90;;;;;;5069997;28;20492;-68
2023/03/02 02:41:35;;;;;;;1999.90;999.90;;;0.00;99.90;;;;;;5069441;28;20447;-69
2023/03/02 02:44:02;;;;;;;1999.90;999.90;;;-0.10;99.90;;;;;;5068023;28;20474;-65
2023/03/02 02:46:29;;;;;;;1999.90;999.90;;;-0.20;99.90;;;;;;5069276;28;20443;-66
2023/03/02 02:48:56;;;;;;;1999.90;999.90;;;-0.30;99.90;;;;;;5069256;28;20478;-66
2023/03/02 02:51:28;;;;;;;1999.90;999.90;;;-0.30;99.90;;;;;;5078449;28;20821;-68
2023/03/02 02:53:58;;;;;;;1999.90;999.90;;;-0.40;99.90;;;;;;5087880;28;20473;-68
2023/03/02 02:56:28;;;;;;;1999.90;999.90;;;-0.30;99.90;;;;;;5089395;28;20450;-69
2023/03/02 02:58:59;;;;;;;1999.90;999.90;;;-0.30;99.90;;;;;;5089321;28;20438;-67
2023/03/02 03:01:26;;;;;;;1999.90;999.90;;;-0.30;99.90;;;;;;5089447;28;20449;-67
2023/03/02 03:03:55;;;;;;;1999.90;999.90;;;-0.30;99.90;;;;;;5087856;28;20469;-66
2023/03/02 03:06:25;;;;;;;1999.90;999.90;;;-0.40;99.90;;;;;;5089228;28;20449;-67
2023/03/02 03:08:56;;;;;;;1999.90;999.90;;;-0.40;99.90;;;;;;5089298;28;20469;-66
2023/03/02 03:11:25;;;;;;;1999.90;999.90;;;-0.40;99.90;;;;;;5089443;28;20948;-67
2023/03/02 03:13:58;;;;;;;1999.90;999.90;;;-0.40;99.90;;;;;;5092551;28;20844;-68
2023/03/02 03:16:27;;;;;;;1999.90;999.90;;;-0.30;99.90;;;;;;5092830;28;20464;-66
2023/03/02 03:18:55;;;;;;;1999.90;999.90;;;-0.20;99.90;;;;;;5092985;28;20446;-68
2023/03/02 03:21:22;;;;;;;1999.90;999.90;;;-0.20;99.90;;;;;;5092904;28;20441;-68
2023/03/02 03:23:49;;;;;;;1999.90;999.90;;;-0.20;99.90;;;;;;5091331;28;20466;-67
2023/03/02 03:26:16;;;;;;;1999.90;999.90;;;-0.20;99.90;;;;;;5093127;28;20478;-68
2023/03/02 03:28:43;;;;;;;1999.90;999.90;;;-0.20;99.90;;;;;;5092536;28;20522;-67
2023/03/02 03:31:11;;;;;;;1999.90;999.90;;;-0.20;99.90;;;;;;5092873;28;20842;-69
2023/03/02 03:33:38;;;;;;;1999.90;999.90;;;-0.30;99.90;;;;;;5091166;28;20473;-68
2023/03/02 03:36:05;;;;;;;1999.90;999.90;;;-0.30;99.90;;;;;;5092405;28;20442;-67
2023/03/02 03:38:33;;;;;;;1999.90;999.90;;;-0.40;99.90;;;;;;5092366;28;20438;-68
2023/03/02 03:41:00;;;;;;;1999.90;999.90;;;-0.20;99.90;;;;;;5092447;28;20450;-68
2023/03/02 03:43:27;;;;;;;1999.90;999.90;;;0.00;99.90;;;;;;5091304;28;20837;-66
2023/03/02 03:45:54;;;;;;;1999.90;999.90;;;0.20;99.90;;;;;;5092120;28;20469;-67
2023/03/02 03:48:22;;;;;;;1999.90;999.90;;;0.30;99.90;;;;;;5092425;28;20477;-65
2023/03/02 03:50:48;;;;;;;1999.90;999.90;;;0.30;99.90;;;;;;5091974;28;20450;-67
2023/03/02 03:53:15;;;;;;;1999.90;999.90;;;0.30;99.90;;;;;;5091182;28;20470;-67
2023/03/02 03:55:42;;;;;;;1999.90;999.90;;;0.20;99.90;;;;;;5092204;28;20453;-67
2023/03/02 03:58:09;;;;;;;1999.90;999.90;;;0.20;99.90;;;;;;5092169;28;20434;-66
2023/03/02 04:00:36;;;;;;;1999.90;999.90;;;0.20;99.90;;;;;;5092268;28;20457;-65
2023/03/02 04:03:02;;;;;;;1999.90;999.90;;;0.30;99.90;;;;;;5090574;28;20470;-68
2023/03/02 04:05:31;;;;;;;1999.90;999.90;;;0.20;99.90;;;;;;5092091;28;20446;-67
2023/03/02 04:08:00;;;;;;;1999.90;999.90;;;0.30;99.90;;;;;;5091508;28;20474;-67
2023/03/02 04:10:28;;;;;;;1999.90;999.90;;;0.30;99.90;;;;;;5092186;28;20558;-67
2023/03/02 04:12:55;;;;;;;1999.90;999.90;;;0.40;99.90;;;;;;5091008;28;20519;-67
2023/03/02 04:15:22;;;;;;;1999.90;999.90;;;0.40;99.90;;;;;;5091634;28;20446;-66
2023/03/02 04:17:49;;;;;;;1999.90;999.90;;;0.30;99.90;;;;;;5091745;28;20817;-68
2023/03/02 04:20:16;;;;;;;1999.90;999.90;;;0.30;99.90;;;;;;5091744;28;20540;-67
2023/03/02 04:22:46;;;;;;;1999.90;999.90;;;0.30;99.90;;;;;;5090545;28;21007;-67
2023/03/02 04:25:14;;;;;;;1999.90;999.90;;;0.30;99.90;;;;;;5091750;28;20452;-69
2023/03/02 04:27:41;;;;;;;1999.90;999.90;;;0.20;99.90;;;;;;5091716;28;20445;-66
2023/03/02 04:30:09;;;;;;;1999.90;999.90;;;0.10;99.90;;;;;;5091688;28;20446;-65
2023/03/02 04:32:36;;;;;;;1999.90;999.90;;;0.10;99.90;;;;;;5090688;28;20468;-67
2023/03/02 04:35:03;;;;;;;1999.90;999.90;;;0.00;99.90;;;;;;5092193;28;20438;-66
2023/03/02 04:37:30;;;;;;;1999.90;999.90;;;-0.10;99.90;;;;;;5091794;28;20458;-67
2023/03/02 04:39:58;;;;;;;1999.90;999.90;;;-0.10;99.90;;;;;;5091587;28;20962;-67
2023/03/02 04:42:25;;;;;;;1999.90;999.90;;;-0.20;99.90;;;;;;5090766;28;20454;-66
2023/03/02 04:44:51;;;;;;;1999.90;999.90;;;-0.30;99.90;;;;;;5086262;28;20455;-68
2023/03/02 04:47:18;;;;;;;1999.90;999.90;;;-0.40;99.90;;;;;;5071747;28;20447;-67
2023/03/02 04:49:45;;;;;;;1999.90;999.90;;;-0.50;99.90;;;;;;5071501;28;20495;-66
2023/03/02 04:52:12;;;;;;;1999.90;999.90;;;-0.60;99.90;;;;;;5070765;28;20447;-68
2023/03/02 04:54:39;;;;;;;1999.90;999.90;;;-0.50;99.90;;;;;;5069719;28;20471;-67
2023/03/02 04:57:07;;;;;;;1999.90;999.90;;;-0.60;99.90;;;;;;5071169;28;20447;-66
2023/03/02 04:59:34;;;;;;;1999.90;999.90;;;-0.70;99.90;;;;;;5070867;28;20442;-66
2023/03/02 05:02:01;;;;;;;1999.90;999.90;;;-0.70;99.90;;;;;;5070797;28;20447;-65
2023/03/02 05:04:28;;;;;;;1999.90;999.90;;;-0.60;99.90;;;;;;5072953;28;20463;-66
2023/03/02 05:06:55;;;;;;;1999.90;999.90;;;-0.70;99.90;;;;;;5071392;28;20451;-67
2023/03/02 05:09:26;;;;;;;1999.90;999.90;;;-0.70;99.90;;;;;;5071704;28;20479;-66
2023/03/02 05:11:53;;;;;;;1999.90;999.90;;;-0.60;99.90;;;;;;5071325;28;20451;-68
2023/03/02 05:14:22;;;;;;;1999.90;999.90;;;-0.60;99.90;;;;;;5070202;28;20471;-67
2023/03/02 05:16:49;;;;;;;1999.90;999.90;;;-0.60;99.90;;;;;;5070705;28;20443;-67
2023/03/02 05:19:17;;;;;;;1999.90;999.90;;;-0.50;99.90;;;;;;5070297;28;20446;-66
2023/03/02 05:21:44;;;;;;;1999.90;999.90;;;-0.50;99.90;;;;;;5070146;28;20450;-68
2023/03/02 05:24:11;;;;;;;1999.90;999.90;;;-0.60;99.90;;;;;;5068666;28;20991;-67
2023/03/02 05:26:38;;;;;;;1999.90;999.90;;;-0.70;99.90;;;;;;5070215;28;20443;-67
2023/03/02 05:29:06;;;;;;;1999.90;999.90;;;-0.70;99.90;;;;;;5070853;28;21000;-67
2023/03/02 05:31:37;;;;;;;1999.90;999.90;;;-0.70;99.90;;;;;;5084402;28;20965;-69
2023/03/02 05:34:05;;;;;;;1999.90;999.90;;;-0.80;99.90;;;;;;5088863;28;20473;-69
2023/03/02 05:36:33;;;;;;;1999.90;999.90;;;-0.80;99.90;;;;;;5090100;28;20488;-70
2023/03/02 05:38:59;;;;;;;1999.90;999.90;;;-0.80;99.90;;;;;;5090366;28;20446;-67
2023/03/02 05:41:27;;;;;;;1999.90;999.90;;;-0.70;99.90;;;;;;5089971;28;20446;-69
2023/03/02 05:43:54;;;;;;;1999.90;999.90;;;-0.70;99.90;;;;;;5089032;28;20466;-68
2023/03/02 05:46:21;;;;;;;1999.90;999.90;;;-0.70;99.90;;;;;;5090642;28;20819;-68
2023/03/02 05:48:49;;;;;;;1999.90;999.90;;;-0.70;99.90;;;;;;5090136;28;20561;-68
2023/03/02 05:51:16;;;;;;;1999.90;999.90;;;-0.70;99.90;;;;;;5089489;28;20450;-70
2023/03/02 05:53:42;;;;;;;1999.90;999.90;;;-0.70;99.90;;;;;;5075591;28;20475;-68
2023/03/02 05:56:09;;;;;;;1999.90;999.90;;;-0.60;99.90;;;;;;5085572;28;20974;-68
2023/03/02 05:58:36;;;;;;;1999.90;999.90;;;-0.50;99.90;;;;;;5079998;28;20439;-67
2023/03/02 06:01:08;;;;;;;1999.90;999.90;;;-0.40;99.90;;;;;;5069837;28;20451;-67
2023/03/02 06:03:34;;;;;;;1999.90;999.90;;;-0.30;99.90;;;;;;5068397;28;20550;-67
2023/03/02 06:06:03;;;;;;;1999.90;999.90;;;-0.20;99.90;;;;;;5069479;28;20450;-67
2023/03/02 06:08:30;;;;;;;1999.90;999.90;;;-0.10;99.90;;;;;;5069917;28;20467;-69
2023/03/02 06:10:57;;;;;;;1999.90;999.90;;;-0.10;99.90;;;;;;5068914;28;20446;-66
2023/03/02 06:13:24;;;;;;;1999.90;999.90;;;0.00;99.90;;;;;;5068104;28;20494;-69
2023/03/02 06:15:51;;;;;;;1999.90;999.90;;;-0.20;99.90;;;;;;5069440;28;20447;-67
2023/03/02 06:18:17;;;;;;;1999.90;999.90;;;-0.10;99.90;;;;;;5071080;28;20481;-67
2023/03/02 06:20:44;;;;;;;1999.90;999.90;;;-0.10;99.90;;;;;;5083168;28;20450;-69
2023/03/02 06:23:12;;;;;;;1999.90;999.90;;;0.00;99.90;;;;;;5072930;28;20458;-70
2023/03/02 06:25:42;;;;;;;1999.90;999.90;;;0.00;99.90;;;;;;5070098;28;20450;-67
2023/03/02 06:28:09;;;;;;;1999.90;999.90;;;-0.10;99.90;;;;;;5069706;28;20435;-67
2023/03/02 06:30:35;;;;;;;1999.90;999.90;;;-0.10;99.90;;;;;;5069633;28;20478;-66
2023/03/02 06:33:02;;;;;;;1999.90;999.90;;;-0.10;99.90;;;;;;5068389;28;20467;-67
2023/03/02 06:35:29;;;;;;;1999.90;999.90;;;0.00;99.90;;;;;;5069362;28;20458;-68
2023/03/02 06:37:58;;;;;;;1999.90;999.90;;;0.00;99.90;;;;;;5069772;28;20439;-67
2023/03/02 06:40:26;;;;;;;1999.90;999.90;;;-0.10;99.90;;;;;;5069399;28;20438;-68
2023/03/02 06:42:53;;;;;;;1999.90;999.90;;;-0.10;99.90;;;;;;5068171;28;20834;-67
2023/03/02 06:45:20;;;;;;;1999.90;999.90;;;0.00;99.90;;;;;;5069123;28;20451;-67
2023/03/02 06:47:47;;;;;;;1999.90;999.90;;;0.10;99.90;;;;;;5073045;28;20447;-68
2023/03/02 06:50:13;;;;;;;1999.90;999.90;;;0.20;99.90;;;;;;5083085;28;20493;-69
2023/03/02 06:52:40;;;;;;;1999.90;999.90;;;0.20;99.90;;;;;;5073427;28;20466;-67
2023/03/02 06:55:08;;;;;;;1999.90;999.90;;;0.20;99.90;;;;;;5073692;28;20443;-67
2023/03/02 06:57:36;;;;;;;1999.90;999.90;;;0.20;99.90;;;;;;5077604;28;20447;-65
2023/03/02 07:00:08;;;;;;;1999.90;999.90;;;0.20;99.90;;;;;;5076999;28;20830;-66
2023/03/02 07:02:35;;;;;;;1999.90;999.90;;;0.30;99.90;;;;;;5071963;28;20435;-66
2023/03/02 07:05:02;;;;;;;1999.90;999.90;;;0.30;99.90;;;;;;5086007;28;20447;-67
2023/03/02 07:07:29;;;;;;;1999.90;999.90;;;0.40;99.90;;;;;;5077702;28;20448;-66
2023/03/02 07:09:55;;;;;;;1999.90;999.90;;;0.40;99.90;;;;;;5073189;28;20478;-68
2023/03/02 07:12:22;;;;;;;1999.90;999.90;;;0.50;99.90;;;;;;5072075;28;20462;-69
2023/03/02 07:14:50;;;;;;;1999.90;999.90;;;0.70;99.90;;;;;;5072517;28;20486;-67
2023/03/02 07:17:17;;;;;;;1999.90;999.90;;;0.90;99.90;;;;;;5077523;28;20442;-67
2023/03/02 07:19:44;;;;;;;1999.90;999.90;;;1.10;99.90;;;;;;5089830;28;20877;-67
2023/03/02 07:22:11;;;;;;;1999.90;999.90;;;1.30;99.90;;;;;;5077239;28;20447;-66
2023/03/02 07:24:37;;;;;;;1999.90;999.90;;;1.50;99.90;;;;;;5075216;28;20489;-66
2023/03/02 07:27:04;;;;;;;1999.90;999.90;;;1.60;99.90;;;;;;5072379;28;20450;-67
2023/03/02 07:29:31;;;;;;;1999.90;999.90;;;1.80;99.90;;;;;;5072451;28;20479;-66
2023/03/02 07:31:59;;;;;;;1999.90;999.90;;;2.00;99.90;;;;;;5072789;28;20462;-66
2023/03/02 07:34:26;;;;;;;1999.90;999.90;;;2.10;99.90;;;;;;5071338;28;20459;-66
2023/03/02 07:36:53;;;;;;;1999.90;999.90;;;2.30;99.90;;;;;;5072359;28;20963;-66
2023/03/02 07:39:20;;;;;;;1999.90;999.90;;;2.50;99.90;;;;;;5072205;28;20439;-66
2023/03/02 07:41:47;;;;;;;1999.90;999.90;;;2.70;99.90;;;;;;5072161;28;20454;-66
2023/03/02 07:44:14;;;;;;;1999.90;999.90;;;3.00;99.90;;;;;;5070616;28;20475;-66
2023/03/02 07:46:41;;;;;;;1999.90;999.90;;;3.20;99.90;;;;;;5072127;28;20454;-66
2023/03/02 07:49:09;;;;;;;1999.90;999.90;;;3.40;99.90;;;;;;5072094;28;20474;-67
2023/03/02 07:51:36;;;;;;;1999.90;999.90;;;3.50;99.90;;;;;;5072160;28;20448;-66
2023/03/02 07:54:03;;;;;;;1999.90;999.90;;;3.50;99.90;;;;;;5070738;28;20503;-67
2023/03/02 07:56:30;;;;;;;1999.90;999.90;;;3.60;99.90;;;;;;5071860;28;20817;-67
2023/03/02 07:58:57;;;;;;;1999.90;999.90;;;3.70;99.90;;;;;;5078697;28;20983;-67
2023/03/02 08:01:24;;;;;;;1999.90;999.90;;;3.90;99.90;;;;;;5075386;28;20976;-66
2023/03/02 08:03:50;;;;;;;1999.90;999.90;;;4.10;99.90;;;;;;5070662;28;20490;-68
2023/03/02 08:06:19;;;;;;;1999.90;999.90;;;4.10;99.90;;;;;;5071680;28;20443;-68
2023/03/02 08:08:46;;;;;;;1999.90;999.90;;;4.40;99.90;;;;;;5071671;28;20443;-67
2023/03/02 08:11:14;;;;;;;1999.90;999.90;;;4.50;99.90;;;;;;5071460;28;20483;-67
2023/03/02 08:13:42;;;;;;;1999.90;999.90;;;4.50;99.90;;;;;;5070494;28;20997;-69
2023/03/02 08:16:12;;;;;;;1999.90;999.90;;;4.60;99.90;;;;;;5071997;28;20447;-67
2023/03/02 08:18:39;;;;;;;1999.90;999.90;;;4.50;99.90;;;;;;5072152;28;20443;-67
2023/03/02 08:21:12;;;;;;;1999.90;999.90;;;4.40;99.90;;;;;;5071831;28;20443;-67
2023/03/02 08:23:41;;;;;;;1999.90;999.90;;;4.60;99.90;;;;;;5070656;28;20466;-66
2023/03/02 08:26:07;;;;;;;1999.90;999.90;;;4.40;99.90;;;;;;5071602;28;20937;-67
2023/03/02 08:28:34;;;;;;;1999.90;999.90;;;4.60;99.90;;;;;;5071763;28;20446;-66
2023/03/02 08:31:02;;;;;;;1999.90;999.90;;;4.60;99.90;;;;;;5071264;28;21266;-64
2023/03/02 08:33:30;;;;;;;1999.90;999.90;;;4.70;99.90;;;;;;5070278;28;20471;-65
2023/03/02 08:35:58;;;;;;;1999.90;999.90;;;4.70;99.90;;;;;;5071272;28;20944;-66
2023/03/02 08:38:25;;;;;;;1999.90;999.90;;;4.80;99.90;;;;;;5071001;28;20458;-65
2023/03/02 08:40:54;;;;;;;1999.90;999.90;;;4.80;99.90;;;;;;5071314;28;20467;-68
2023/03/02 08:43:21;;;;;;;1999.90;999.90;;;4.80;99.90;;;;;;5069639;28;20467;-66
2023/03/02 08:45:51;;;;;;;1999.90;999.90;;;4.80;99.90;;;;;;5070946;28;20976;-67
2023/03/02 08:48:18;;;;;;;1999.90;999.90;;;5.00;99.90;;;;;;5070975;28;20473;-67
2023/03/02 08:50:45;;;;;;;1999.90;999.90;;;5.00;99.90;;;;;;5070804;28;20482;-67
2023/03/02 08:53:12;;;;;;;1999.90;999.90;;;5.10;99.90;;;;;;5069652;28;20471;-66
2023/03/02 08:55:38;;;;;;;1999.90;999.90;;;5.10;99.90;;;;;;5070782;28;20439;-67
2023/03/02 08:58:06;;;;;;;1999.90;999.90;;;5.10;99.90;;;;;;5070751;28;20450;-66
2023/03/02 09:00:33;;;;;;;1999.90;999.90;;;5.20;99.90;;;;;;5070761;28;20439;-67
2023/03/02 09:03:01;;;;;;;1999.90;999.90;;;5.40;99.90;;;;;;5069441;28;20495;-66
2023/03/02 09:05:27;;;;;;;1999.90;999.90;;;5.50;99.90;;;;;;5070580;28;20470;-67
2023/03/02 09:07:54;;;;;;;1999.90;999.90;;;5.60;99.90;;;;;;5070662;28;20443;-70
2023/03/02 09:10:21;;;;;;;1999.90;999.90;;;5.60;99.90;;;;;;5069978;28;20475;-66
2023/03/02 09:12:48;;;;;;;1999.90;999.90;;;5.80;99.90;;;;;;5069190;28;20481;-66
2023/03/02 09:15:16;;;;;;;1999.90;999.90;;;6.00;99.90;;;;;;5070438;28;20447;-67
2023/03/02 09:17:43;;;;;;;1999.90;999.90;;;6.20;99.90;;;;;;5070308;28;20540;-69
2023/03/02 09:20:11;;;;;;;1999.90;999.90;;;6.40;99.90;;;;;;5070194;28;20443;-69
2023/03/02 09:22:37;;;;;;;1999.90;999.90;;;6.60;99.90;;;;;;5069340;28;20471;-67
2023/03/02 09:25:05;;;;;;;1999.90;999.90;;;6.60;99.90;;;;;;5070247;28;20454;-67
2023/03/02 09:27:32;;;;;;;1999.90;999.90;;;6.90;99.90;;;;;;5070247;28;20474;-67
2023/03/02 09:29:59;;;;;;;1999.90;999.90;;;7.20;99.90;;;;;;5070215;28;20846;-67
2023/03/02 09:32:27;;;;;;;1999.90;999.90;;;7.60;99.90;;;;;;5070112;28;20535;-67
2023/03/02 09:34:54;;;;;;;1999.90;999.90;;;7.80;99.90;;;;;;5070449;28;20817;-67
2023/03/02 09:37:20;;;;;;;1999.90;999.90;;;8.10;99.90;;;;;;5070146;28;20455;-67
2023/03/02 09:39:47;;;;;;;1999.90;999.90;;;8.20;99.90;;;;;;5070026;28;20446;-73
2023/03/02 09:42:42;;;;;;;1999.90;999.90;;;8.40;99.90;;;;;;5069553;28;20439;-63
2023/03/02 09:45:30;;;;;;;1999.90;999.90;;;8.60;99.90;;;;;;5069847;28;20462;-61
2023/03/02 09:48:11;;;;;;;1999.90;999.90;;;8.60;99.90;;;;;;5070132;28;20941;-67
2023/03/02 09:50:41;;;;;;;1999.90;999.90;;;8.80;99.90;;;;;;5070111;28;20490;-66
2023/03/02 09:53:27;;;;;;;1999.90;999.90;;;9.20;99.90;;;;;;5069291;28;20885;-69
2023/03/02 09:55:58;;;;;;;1999.90;999.90;;;9.10;99.90;;;;;;5069825;28;20447;-66
2023/03/02 09:58:29;;;;;;;1999.90;999.90;;;8.90;99.90;;;;;;5069861;28;20956;-66
2023/03/02 10:01:00;;;;;;;1999.90;999.90;;;8.80;99.90;;;;;;5069730;28;21002;-67
2023/03/02 10:03:36;;;;;;;1999.90;999.90;;;9.20;99.90;;;;;;5068701;28;20470;-66
2023/03/02 10:06:03;;;;;;;1999.90;999.90;;;9.20;99.90;;;;;;5069785;28;20447;-67
2023/03/02 10:08:35;;;;;;;1999.90;999.90;;;9.50;99.90;;;;;;5070050;28;20447;-67
2023/03/02 10:11:09;;;;;;;1999.90;999.90;;;9.70;99.90;;;;;;5069973;28;20487;-65
2023/03/02 10:13:45;;;;;;;1999.90;999.90;;;9.80;99.90;;;;;;5068735;28;20463;-68
2023/03/02 10:16:22;;;;;;;1999.90;999.90;;;9.50;99.90;;;;;;5070478;28;20817;-67
2023/03/02 10:19:01;;;;;;;1999.90;999.90;;;9.90;99.90;;;;;;5070253;28;20462;-67
2023/03/02 10:21:32;;;;;;;1999.90;999.90;;;10.40;99.90;;;;;;5072332;28;20941;-67
2023/03/02 10:24:03;;;;;;;1999.90;999.90;;;10.60;99.90;;;;;;5072886;28;20690;-66
2023/03/02 10:26:39;;;;;;;1999.90;999.90;;;11.10;99.90;;;;;;5073794;28;20438;-67
2023/03/02 10:29:22;;;;;;;1999.90;999.90;;;11.50;98.70;;;;;;5073819;28;20446;-67
2023/03/02 10:31:57;;;;;;;1999.90;999.90;;;11.60;99.40;;;;;;5073645;28;20483;-69
2023/03/02 10:34:29;;;;;;;1999.90;999.90;;;11.90;98.10;;;;;;5072464;28;20462;-65
2023/03/02 10:36:55;;;;;;;1999.90;999.90;;;11.50;99.00;;;;;;5073338;28;20443;-67
2023/03/02 10:39:22;;;;;;;1999.90;999.90;;;12.00;99.20;;;;;;5073635;28;20447;-66
2023/03/02 10:41:53;;;;;;;1999.90;999.90;;;12.50;97.50;;;;;;5073561;28;20550;-68
2023/03/02 10:44:23;;;;;;;1999.90;999.90;;;12.90;96.30;;;;;;5072224;28;20483;-68
2023/03/02 10:46:52;;;;;;;1999.90;999.90;;;13.30;95.90;;;;;;5073456;28;20447;-67
2023/03/02 10:49:29;;;;;;;1999.90;999.90;;;13.80;95.10;;;;;;5073347;28;20939;-67
2023/03/02 10:51:58;;;;;;;1999.90;999.90;;;14.10;94.10;;;;;;5073240;28;20837;-69
2023/03/02 10:54:28;;;;;;;1999.90;999.90;;;14.10;92.20;;;;;;5072242;28;20459;-66
2023/03/02 10:56:59;;;;;;;1999.90;999.90;;;13.50;92.80;;;;;;5073190;28;20439;-66
2023/03/02 10:59:39;;;;;;;1999.90;999.90;;;12.70;93.20;;;;;;5073052;28;20450;-67
2023/03/02 11:02:15;;;;;;;1999.90;999.90;;;12.40;94.50;;;;;;5072590;28;20435;-67
2023/03/02 11:04:44;;;;;;;1999.90;999.90;;;12.80;94.30;;;;;;5072456;28;20462;-67
2023/03/02 11:07:14;;;;;;;1999.90;999.90;;;12.60;94.10;;;;;;5072930;28;20442;-67
2023/03/02 11:09:42;;;;;;;1999.90;999.90;;;12.50;94.50;;;;;;5072865;28;20439;-67
2023/03/02 11:12:14;;;;;;;1999.90;999.90;;;12.50;94.90;;;;;;5072392;28;20515;-67
2023/03/02 11:14:41;;;;;;;1999.90;999.90;;;12.50;94.30;;;;;;5072016;28;20554;-68
2023/03/02 11:17:29;;;;;;;1999.90;999.90;;;12.70;94.30;;;;;;5072521;28;20455;-66
2023/03/02 11:19:57;;;;;;;1999.90;999.90;;;12.60;94.20;;;;;;5085147;28;20450;-67
2023/03/02 11:22:32;;;;;;;1999.90;999.90;;;13.00;95.20;;;;;;5082876;28;20460;-69
2023/03/02 11:25:03;;;;;;;1999.90;999.90;;;13.80;94.00;;;;;;5087512;28;20445;-68
2023/03/02 11:27:33;;;;;;;1999.90;999.90;;;14.00;93.00;;;;;;5092732;28;20958;-67
2023/03/02 11:30:04;;;;;;;1999.90;999.90;;;14.60;92.50;;;;;;5089361;28;20453;-69
2023/03/02 11:32:36;;;;;;;1999.90;999.90;;;15.40;91.10;;;;;;5083924;28;20442;-67
2023/03/02 11:35:12;;;;;;;1999.90;999.90;;;15.10;90.40;;;;;;5074548;28;20440;-66
2023/03/02 11:37:43;;;;;;;1999.90;999.90;;;14.30;90.90;;;;;;5078161;28;20442;-66
2023/03/02 11:40:21;;;;;;;1999.90;999.90;;;13.70;92.00;;;;;;5080065;28;20438;-68
2023/03/02 11:42:48;;;;;;;1999.90;999.90;;;13.70;92.60;;;;;;5085033;28;20465;-67
2023/03/02 11:45:20;;;;;;;1999.90;999.90;;;14.00;93.10;;;;;;5091425;28;20454;-68
2023/03/02 11:47:52;;;;;;;1999.90;999.90;;;14.90;92.10;;;;;;5084769;28;20470;-68
2023/03/02 11:50:21;;;;;;;1999.90;999.90;;;16.00;90.70;;;;;;5084646;28;20470;-67
2023/03/02 11:52:52;;;;;;;1999.90;999.90;;;17.00;90.30;;;;;;5085792;28;20500;-68
2023/03/02 11:55:22;;;;;;;1999.90;999.90;;;17.90;85.90;;;;;;5092169;28;20880;-69
2023/03/02 11:57:51;;;;;;;1999.90;999.90;;;18.10;84.00;;;;;;5088121;28;20454;-68
2023/03/02 12:00:30;;;;;;;1999.90;999.90;;;18.80;80.60;;;;;;5080274;28;20477;-67
2023/03/02 12:03:02;;;;;;;1999.90;999.90;;;18.80;78.60;;;;;;5081380;28;20481;-65
2023/03/02 12:05:34;;;;;;;1999.90;999.90;;;17.50;79.60;;;;;;5075540;28;20442;-67
2023/03/02 12:08:03;;;;;;;1999.90;999.90;;;16.80;83.00;;;;;;5073566;28;20443;-65
2023/03/02 12:10:37;;;;;;;1999.90;999.90;;;17.20;82.80;;;;;;5087909;28;20497;-67